createdAt,value
2022-08-28T00:02:08.132Z,16.58
2022-08-28T00:07:10.204Z,16.56
2022-08-28T00:12:12.550Z,16.55
2022-08-28T00:17:14.378Z,16.56
2022-08-28T00:22:16.601Z,16.59
2022-08-28T00:27:36.970Z,16.53
2022-08-28T00:32:38.783Z,16.50
2022-08-28T00:37:40.571Z,16.49
2022-08-28T00:42:43.167Z,16.46
2022-08-28T00:47:45.876Z,16.44
2022-08-28T00:52:53.135Z,16.44
2022-08-28T00:57:59.154Z,16.45
2022-08-28T01:03:01.319Z,16.47
2022-08-28T01:08:06.344Z,16.43
2022-08-28T01:13:08.765Z,16.41
2022-08-28T01:18:15.834Z,16.36
2022-08-28T01:23:39.380Z,16.37
2022-08-28T01:28:42.752Z,16.31
2022-08-28T01:33:47.608Z,16.26
2022-08-28T01:38:59.187Z,16.24
2022-08-28T01:44:01.239Z,16.17
2022-08-28T01:49:03.919Z,16.18
2022-08-28T01:54:06.240Z,16.16
2022-08-28T01:59:10.854Z,16.15
2022-08-28T02:04:13.045Z,16.12
2022-08-28T02:09:15.039Z,16.11
2022-08-28T02:14:16.916Z,16.05
2022-08-28T02:19:18.837Z,16.08
2022-08-28T02:24:20.687Z,16.17
2022-08-28T02:29:22.504Z,16.21
2022-08-28T02:34:24.397Z,16.21
2022-08-28T02:39:26.260Z,16.03
2022-08-28T02:44:28.111Z,16.00
2022-08-28T02:49:31.365Z,15.94
2022-08-28T02:54:39.860Z,15.93
2022-08-28T02:59:43.505Z,15.86
2022-08-28T03:04:45.346Z,15.81
2022-08-28T03:09:47.218Z,15.83
2022-08-28T03:14:49.042Z,15.79
2022-08-28T03:19:51.179Z,15.77
2022-08-28T03:24:52.996Z,15.69
2022-08-28T03:29:54.886Z,15.70
2022-08-28T03:34:56.717Z,15.66
2022-08-28T03:39:58.562Z,15.62
2022-08-28T03:45:00.567Z,15.59
2022-08-28T03:50:02.739Z,15.52
2022-08-28T03:55:08.678Z,15.58
2022-08-28T04:00:13.307Z,15.53
2022-08-28T04:05:17.705Z,15.47
2022-08-28T04:10:20.093Z,15.39
2022-08-28T04:15:22.549Z,15.30
2022-08-28T04:20:24.367Z,15.18
2022-08-28T04:25:26.181Z,15.11
2022-08-28T04:30:28.046Z,14.97
2022-08-28T04:35:29.965Z,14.91
2022-08-28T04:40:31.888Z,15.04
2022-08-28T04:45:38.368Z,15.02
2022-08-28T04:50:46.070Z,15.05
2022-08-28T04:55:54.539Z,15.07
2022-08-28T05:00:57.150Z,15.04
2022-08-28T05:05:59.311Z,15.05
2022-08-28T05:11:32.652Z,15.10
2022-08-28T05:17:02.047Z,15.12
2022-08-28T05:22:04.000Z,15.16
2022-08-28T05:27:07.167Z,15.11
2022-08-28T05:32:09.465Z,15.10
2022-08-28T05:37:17.752Z,15.09
2022-08-28T05:42:21.921Z,15.12
2022-08-28T05:47:24.587Z,15.09
2022-08-28T05:52:26.455Z,15.09
2022-08-28T05:57:29.681Z,15.16
2022-08-28T06:02:31.854Z,15.23
2022-08-28T06:07:34.619Z,15.27
2022-08-28T06:12:36.561Z,15.30
2022-08-28T06:17:38.431Z,15.38
2022-08-28T06:22:40.453Z,15.47
2022-08-28T06:27:42.509Z,15.23
2022-08-28T06:32:44.475Z,15.04
2022-08-28T06:37:46.347Z,15.04
2022-08-28T06:42:48.206Z,14.94
2022-08-28T06:47:50.024Z,14.92
2022-08-28T06:52:55.240Z,14.81
2022-08-28T06:57:57.024Z,14.73
2022-08-28T07:02:59.924Z,14.77
2022-08-28T07:08:01.997Z,14.95
2022-08-28T07:13:05.539Z,15.11
2022-08-28T07:18:07.400Z,15.19
2022-08-28T07:23:09.728Z,15.37
2022-08-28T07:28:11.565Z,15.43
2022-08-28T07:33:14.450Z,15.48
2022-08-28T07:38:17.028Z,15.43
2022-08-28T07:43:37.326Z,15.41
2022-08-28T07:48:41.514Z,15.65
2022-08-28T07:53:43.383Z,15.72
2022-08-28T07:58:45.484Z,15.77
2022-08-28T08:03:47.445Z,16.04
2022-08-28T08:08:50.706Z,16.22
2022-08-28T08:13:54.704Z,16.15
2022-08-28T08:18:57.632Z,16.29
2022-08-28T08:23:59.705Z,16.29
2022-08-28T08:29:01.596Z,16.66
2022-08-28T08:34:05.196Z,17.08
2022-08-28T08:39:09.745Z,17.93
2022-08-28T08:44:34.080Z,18.88
2022-08-28T08:49:47.569Z,19.47
2022-08-28T08:55:21.890Z,20.01
2022-08-28T09:00:23.961Z,19.26
2022-08-28T09:05:50.190Z,18.81
2022-08-28T09:11:12.534Z,18.45
2022-08-28T09:16:40.696Z,18.63
2022-08-28T09:21:44.867Z,18.92
2022-08-28T09:27:05.152Z,19.33
2022-08-28T09:32:43.831Z,19.34
2022-08-28T09:37:45.712Z,19.09
2022-08-28T09:43:28.920Z,19.22
2022-08-28T09:48:43.497Z,19.26
2022-08-28T09:53:57.357Z,19.45
2022-08-28T09:59:06.940Z,18.91
2022-08-28T10:04:37.622Z,19.29
2022-08-28T10:10:09.429Z,19.80
2022-08-28T10:15:42.486Z,19.42
2022-08-28T10:21:01.392Z,19.15
2022-08-28T10:26:18.453Z,19.24
2022-08-28T10:31:52.829Z,20.19
2022-08-28T10:37:25.213Z,19.82
2022-08-28T10:42:36.695Z,19.62
2022-08-28T10:47:44.786Z,19.73
2022-08-28T10:52:53.714Z,20.12
2022-08-28T10:58:03.691Z,20.77
2022-08-28T11:03:33.191Z,21.13
2022-08-28T11:08:38.382Z,20.27
2022-08-28T11:13:43.094Z,20.09
2022-08-28T11:19:03.916Z,20.42
2022-08-28T11:24:10.331Z,20.49
2022-08-28T11:29:12.195Z,20.40
2022-08-28T11:34:52.260Z,20.51
2022-08-28T11:40:18.837Z,20.43
2022-08-28T11:45:42.667Z,21.03
2022-08-28T11:51:06.979Z,21.57
2022-08-28T11:56:14.110Z,21.43
2022-08-28T12:01:35.531Z,20.59
2022-08-28T12:06:50.293Z,20.61
2022-08-28T12:12:21.550Z,20.62
2022-08-28T12:17:25.936Z,20.68
2022-08-28T12:22:47.818Z,21.08
2022-08-28T12:27:49.911Z,22.47
2022-08-28T12:33:18.773Z,23.37
2022-08-28T12:38:22.599Z,23.34
2022-08-28T12:43:40.839Z,22.53
2022-08-28T12:48:53.090Z,21.83
2022-08-28T12:53:57.843Z,21.32
2022-08-28T12:59:27.203Z,21.59
2022-08-28T13:04:34.487Z,21.79
2022-08-28T13:09:37.151Z,22.29
2022-08-28T13:14:43.794Z,21.97
2022-08-28T13:19:45.754Z,22.28
2022-08-28T13:24:48.234Z,22.23
2022-08-28T13:29:57.486Z,22.39
2022-08-28T13:35:18.056Z,22.57
2022-08-28T13:40:56.945Z,23.27
2022-08-28T13:45:48.769Z,23.11
2022-08-28T13:50:56.461Z,28.84
2022-08-28T13:56:00.252Z,34.00
2022-08-28T14:01:02.768Z,33.46
2022-08-28T14:06:14.214Z,35.37
2022-08-28T14:11:16.181Z,36.63
2022-08-28T14:16:18.143Z,36.43
2022-08-28T14:21:20.939Z,37.96
2022-08-28T14:26:22.831Z,37.38
2022-08-28T14:31:26.767Z,37.68
2022-08-28T14:36:30.305Z,36.33
2022-08-28T14:41:32.646Z,36.95
2022-08-28T14:46:36.267Z,35.99
2022-08-28T14:51:39.779Z,32.81
2022-08-28T14:56:43.557Z,29.95
2022-08-28T15:01:46.521Z,27.13
2022-08-28T15:06:50.857Z,25.94
2022-08-28T15:11:53.454Z,23.81
2022-08-28T15:16:55.474Z,23.55
2022-08-28T15:21:58.445Z,23.40
2022-08-28T15:27:01.589Z,23.62
2022-08-28T15:32:04.230Z,23.54
2022-08-28T15:37:07.801Z,23.20
2022-08-28T15:42:11.542Z,22.79
2022-08-28T15:47:15.313Z,22.65
2022-08-28T15:52:19.217Z,22.36
2022-08-28T15:57:21.093Z,22.06
2022-08-28T16:02:24.331Z,21.82
2022-08-28T16:07:26.195Z,21.56
2022-08-28T16:12:27.870Z,21.02
2022-08-28T16:17:29.526Z,20.54
2022-08-28T16:22:31.164Z,20.20
2022-08-28T16:27:33.445Z,20.06
2022-08-28T16:32:35.184Z,19.94
2022-08-28T16:37:40.073Z,19.56
2022-08-28T16:42:42.213Z,19.45
2022-08-28T16:47:53.177Z,19.21
2022-08-28T16:52:55.100Z,18.77
2022-08-28T16:57:56.782Z,18.69
2022-08-28T17:02:58.522Z,18.41
2022-08-28T17:08:00.317Z,18.05
2022-08-28T17:13:02.136Z,17.92
2022-08-28T17:18:03.891Z,17.73
2022-08-28T17:23:05.882Z,17.53
2022-08-28T17:28:07.769Z,17.51
2022-08-28T17:33:09.519Z,17.41
2022-08-28T17:38:12.012Z,17.17
2022-08-28T17:43:13.832Z,17.05
2022-08-28T17:48:17.033Z,16.89
2022-08-28T17:53:18.933Z,16.85
2022-08-28T17:58:20.868Z,16.52
2022-08-28T18:03:22.478Z,16.10
2022-08-28T18:08:25.615Z,16.04
2022-08-28T18:13:27.414Z,15.86
2022-08-28T18:18:32.325Z,15.60
2022-08-28T18:23:39.636Z,15.29
2022-08-28T18:28:41.275Z,15.03
2022-08-28T18:33:42.931Z,14.81
2022-08-28T18:38:44.846Z,14.62
2022-08-28T18:43:47.003Z,14.47
2022-08-28T18:48:48.953Z,14.32
2022-08-28T18:53:50.847Z,14.14
2022-08-28T18:58:52.759Z,14.00
2022-08-28T19:03:55.828Z,13.89
2022-08-28T19:08:57.638Z,13.78
2022-08-28T19:13:59.730Z,13.62
2022-08-28T19:19:05.633Z,13.56
2022-08-28T19:24:10.732Z,13.49
2022-08-28T19:29:12.789Z,13.42
2022-08-28T19:34:14.670Z,13.33
2022-08-28T19:39:16.597Z,13.27
2022-08-28T19:44:18.683Z,13.22
2022-08-28T19:49:20.321Z,13.16
2022-08-28T19:54:21.967Z,13.13
2022-08-28T19:59:27.023Z,13.09
2022-08-28T20:04:30.849Z,12.93
2022-08-28T20:09:32.526Z,12.85
2022-08-28T20:14:34.428Z,12.81
2022-08-28T20:19:36.290Z,12.76
2022-08-28T20:24:39.217Z,12.67
2022-08-28T20:29:40.952Z,12.60
2022-08-28T20:34:44.522Z,12.54
2022-08-28T20:39:47.296Z,12.53
2022-08-28T20:44:51.626Z,12.49
2022-08-28T20:49:53.384Z,12.42
2022-08-28T20:54:55.054Z,12.35
2022-08-28T20:59:56.936Z,12.24
2022-08-28T21:04:58.614Z,12.19
2022-08-28T21:10:05.847Z,12.09
2022-08-28T21:15:12.535Z,12.04
2022-08-28T21:20:16.131Z,11.99
2022-08-28T21:25:20.611Z,11.93
2022-08-28T21:30:22.453Z,11.92
2022-08-28T21:35:24.661Z,11.87
2022-08-28T21:40:26.419Z,11.85
2022-08-28T21:45:28.116Z,11.82
2022-08-28T21:50:29.854Z,11.74
2022-08-28T21:55:31.792Z,11.67
2022-08-28T22:00:33.478Z,11.61
2022-08-28T22:05:37.672Z,11.57
2022-08-28T22:10:41.143Z,11.55
2022-08-28T22:15:45.088Z,11.61
2022-08-28T22:21:05.898Z,11.65
2022-08-28T22:26:12.302Z,11.53
2022-08-28T22:31:14.407Z,11.41
2022-08-28T22:36:17.395Z,11.35
2022-08-28T22:41:20.242Z,11.26
2022-08-28T22:46:22.313Z,11.27
2022-08-28T22:51:24.003Z,11.20
2022-08-28T22:56:25.716Z,11.22
2022-08-28T23:01:27.968Z,11.15
2022-08-28T23:06:31.288Z,11.09
2022-08-28T23:11:34.785Z,11.12
2022-08-28T23:16:36.457Z,11.04
2022-08-28T23:21:40.913Z,10.98
2022-08-28T23:26:45.800Z,10.99
2022-08-28T23:31:47.925Z,11.02
2022-08-28T23:36:49.756Z,10.98
2022-08-28T23:41:53.107Z,10.93
2022-08-28T23:46:54.751Z,10.90
2022-08-28T23:51:57.818Z,10.88
2022-08-28T23:57:01.324Z,10.86
